CheckWX is a tool to help pilots better visualize weather data.  It is not intended as a substitute for an official pre-flight weather briefing.

00:19:22 UTC

ORNI TAF
Al Najaf International Airport
Iraq
TAF ORNI 252200Z 2600/2624 30008KT 7000 SCT040 SCT080 TEMPO 2600/2608 -TS SHRA FEW025CB

Mar-26@
00:00 UTC

Mar-26 @ 00:00 UTC

Mar-27@
00:00 UTC

Mar-27 @ 00:00 UTC

TAF ORNI 252200Z 2600/2624 30008KT 7000 SCT040 SCT080
Wind
  • 300° at 8 KTS
Cloud Levels
  • Scattered at 4,000' AGL
  • Scattered at 8,000' AGL

Mar-26@
00:00 UTC

Mar-26 @ 00:00 UTC

Mar-26@
08:00 UTC

Mar-26 @ 08:00 UTC

TEMPO 2600/2608 -TS SHRA FEW025CB

Temporary

Temporary Changes expected for less than half the time period

Conditions
Light Thunderstorm, Rain
Cloud Levels
  • Few at 2,500' AGL